Time;durP1;ratioP1;P1;durP2;ratioP2;P2;SDS_P1;SDS_P2;PMS_P1;PMS_P2;Temp;Humidity;BMP_temperature;BMP_pressure;BME280_temperature;BME280_humidity;BME280_pressure;Samples;Min_cycle;Max_cycle;Signal;HPM_P1;HPM_P2
2023/05/17 00:01:46;;;;;;;3.35;1.20;;;;;;;10.90;65.24;100399.09;4946896;28;20062;-88
2023/05/17 00:04:13;;;;;;;3.63;1.45;;;;;;;10.74;66.43;100402.16;4940966;28;20062;-88
2023/05/17 00:06:40;;;;;;;4.97;2.00;;;;;;;10.72;66.39;100396.94;4950380;28;20051;-88
2023/05/17 00:09:07;;;;;;;6.57;1.50;;;;;;;10.81;65.84;100401.53;4920977;28;20454;-89
2023/05/17 00:11:34;;;;;;;4.38;1.40;;;;;;;10.70;65.91;100398.88;4952545;28;20050;-88
2023/05/17 00:14:01;;;;;;;5.85;2.17;;;;;;;10.80;65.92;100401.66;4950278;28;20039;-89
2023/05/17 00:16:28;;;;;;;4.10;1.15;;;;;;;10.88;65.36;100406.34;4933554;28;20483;-88
2023/05/17 00:18:54;;;;;;;4.78;1.08;;;;;;;10.72;66.04;100394.28;4936844;28;20035;-89
2023/05/17 00:21:21;;;;;;;6.25;1.48;;;;;;;10.73;65.67;100400.44;4949487;28;20047;-89
2023/05/17 00:23:48;;;;;;;4.13;1.60;;;;;;;10.63;66.31;100401.19;4933805;28;20051;-89
2023/05/17 00:26:15;;;;;;;4.45;1.20;;;;;;;10.51;66.87;100401.34;4932900;28;20043;-87
2023/05/17 00:28:42;;;;;;;2.50;1.27;;;;;;;10.61;66.02;100402.28;4933228;28;20573;-88
2023/05/17 00:31:09;;;;;;;15.43;2.28;;;;;;;10.59;66.40;100415.69;4942866;28;20043;-88
2023/05/17 00:33:36;;;;;;;5.45;1.25;;;;;;;10.52;66.85;100409.16;4949093;28;20047;-89
2023/05/17 00:36:03;;;;;;;3.70;1.40;;;;;;;10.73;66.02;100413.72;4949231;28;20054;-89
2023/05/17 00:38:30;;;;;;;7.40;2.08;;;;;;;10.77;65.89;100421.34;4950293;28;20405;-89
2023/05/17 00:40:56;;;;;;;5.43;1.52;;;;;;;10.61;65.68;100411.09;4943608;28;20414;-89
2023/05/17 00:43:25;;;;;;;5.55;1.38;;;;;;;10.59;66.20;100428.97;4947647;28;20075;-88
2023/05/17 00:45:52;;;;;;;4.10;1.30;;;;;;;10.50;65.86;100431.50;4969652;28;20047;-88
2023/05/17 00:48:24;;;;;;;5.03;1.45;;;;;;;10.68;65.81;100430.03;4951672;28;20368;-88
2023/05/17 00:50:52;;;;;;;4.25;1.30;;;;;;;10.65;65.88;100422.31;4929064;28;20134;-87
2023/05/17 00:53:19;;;;;;;8.70;2.80;;;;;;;10.51;66.51;100426.06;4949806;28;20423;-87
2023/05/17 00:55:45;;;;;;;2.58;1.30;;;;;;;10.44;66.11;100430.16;4941397;28;20499;-88
2023/05/17 00:58:13;;;;;;;3.67;1.60;;;;;;;10.51;66.72;100441.16;4936476;28;20138;-88
2023/05/17 01:00:40;;;;;;;5.35;1.65;;;;;;;10.45;67.64;100437.16;4921025;28;20458;-88
2023/05/17 01:03:07;;;;;;;3.38;1.40;;;;;;;10.53;66.84;100445.38;4964267;28;20055;-87
2023/05/17 01:05:34;;;;;;;4.65;1.30;;;;;;;10.52;66.91;100442.84;4951739;28;21348;-88
2023/05/17 01:08:01;;;;;;;3.78;2.08;;;;;;;10.63;66.15;100445.47;4949005;28;20474;-88
2023/05/17 01:11:13;;;;;;;5.68;1.58;;;;;;;10.14;66.78;100444.81;4928670;28;20604;-88
2023/05/17 01:13:51;;;;;;;2.90;1.33;;;;;;;10.32;66.22;100442.56;4954790;28;20051;-88
2023/05/17 01:16:30;;;;;;;2.75;1.27;;;;;;;10.38;66.36;100443.91;4918490;28;20046;-88
2023/05/17 01:19:30;;;;;;;1.95;1.30;;;;;;;10.28;66.42;100440.28;4932621;28;20175;-88
2023/05/17 01:22:02;;;;;;;9.45;1.60;;;;;;;10.35;66.56;100444.97;4915769;29;20107;-88
2023/05/17 01:24:37;;;;;;;2.60;1.30;;;;;;;10.24;66.44;100442.31;4915222;28;20126;-88
2023/05/17 01:27:05;;;;;;;4.53;1.27;;;;;;;10.46;66.65;100438.00;4934368;28;20074;-88
2023/05/17 01:29:34;;;;;;;7.68;1.70;;;;;;;10.35;67.32;100444.97;4922469;28;20388;-88
2023/05/17 01:32:02;;;;;;;6.30;1.55;;;;;;;10.34;67.65;100447.78;4948946;28;20062;-89
2023/05/17 01:34:29;;;;;;;6.45;1.40;;;;;;;10.42;67.45;100448.03;4948033;28;20048;-88
2023/05/17 01:36:56;;;;;;;4.78;2.40;;;;;;;10.34;68.83;100448.63;4934937;28;20059;-88
2023/05/17 01:39:24;;;;;;;6.25;1.65;;;;;;;10.26;68.87;100452.81;4939071;28;20055;-88
2023/05/17 01:42:00;;;;;;;3.63;1.40;;;;;;;10.22;68.63;100453.03;4948538;28;20047;-88
2023/05/17 01:44:49;;;;;;;3.67;1.58;;;;;;;10.10;68.92;100458.44;4915529;28;20496;-88
2023/05/17 01:47:35;;;;;;;6.70;1.77;;;;;;;9.99;69.63;100457.44;4936852;28;20380;-87
2023/05/17 01:50:03;;;;;;;3.28;1.48;;;;;;;10.34;68.71;100459.22;4949123;28;20048;-87
2023/05/17 01:52:50;;;;;;;8.07;1.88;;;;;;;10.25;68.77;100459.06;4933741;28;20099;-87
2023/05/17 01:55:35;;;;;;;7.22;1.95;;;;;;;10.28;68.38;100448.22;4964390;28;20053;-87
2023/05/17 01:58:05;;;;;;;3.33;1.40;;;;;;;10.42;67.54;100464.78;4956499;28;20090;-89
2023/05/17 02:00:32;;;;;;;6.28;1.77;;;;;;;10.47;67.90;100461.78;4919852;28;20047;-89
2023/05/17 02:02:59;;;;;;;4.40;1.67;;;;;;;10.26;68.58;100466.09;4949517;28;20055;-88
2023/05/17 02:05:26;;;;;;;3.50;1.45;;;;;;;10.19;68.94;100471.84;4952255;28;20062;-88
2023/05/17 02:07:53;;;;;;;3.35;1.60;;;;;;;10.23;69.17;100464.50;4920791;28;20053;-87
2023/05/17 02:10:20;;;;;;;3.95;1.63;;;;;;;10.26;68.80;100464.25;4900497;28;20046;-88
2023/05/17 02:12:46;;;;;;;13.20;2.08;;;;;;;10.44;66.69;100464.69;4937174;28;20135;-89
2023/05/17 02:15:15;;;;;;;3.17;1.42;;;;;;;10.43;66.38;100470.94;4947235;28;20052;-89
2023/05/17 02:17:42;;;;;;;7.13;2.08;;;;;;;10.40;65.76;100463.22;4946524;28;20376;-88
2023/05/17 02:20:10;;;;;;;7.90;2.72;;;;;;;10.51;64.54;100459.75;4951692;28;20130;-89
2023/05/17 02:22:37;;;;;;;5.30;1.85;;;;;;;10.37;64.75;100466.13;4946700;28;20047;-88
2023/05/17 02:25:05;;;;;;;6.25;2.05;;;;;;;10.29;65.50;100469.38;4964993;28;20106;-90
2023/05/17 02:27:32;;;;;;;6.32;1.50;;;;;;;10.31;65.53;100469.25;4934538;28;20098;-88
2023/05/17 02:30:00;;;;;;;5.78;1.75;;;;;;;10.24;66.40;100468.84;4963619;28;20132;-89
2023/05/17 02:32:28;;;;;;;4.25;1.90;;;;;;;10.20;66.20;100470.03;4951400;28;20050;-88
2023/05/17 02:34:55;;;;;;;4.85;1.77;;;;;;;10.22;65.84;100466.28;4950035;28;20058;-88
2023/05/17 02:37:22;;;;;;;5.15;2.17;;;;;;;10.20;65.55;100472.69;4916688;28;20122;-89
2023/05/17 02:39:49;;;;;;;10.18;1.98;;;;;;;10.24;65.45;100474.16;4936057;28;20066;-89
2023/05/17 02:42:15;;;;;;;7.10;1.80;;;;;;;10.16;66.02;100471.25;4952579;28;20051;-88
2023/05/17 02:44:42;;;;;;;5.22;1.70;;;;;;;10.14;66.75;100470.50;4949946;28;20046;-88
2023/05/17 02:47:09;;;;;;;7.88;1.70;;;;;;;10.10;66.73;100477.88;4925097;28;20557;-89
2023/05/17 02:49:36;;;;;;;9.05;2.15;;;;;;;10.17;66.33;100480.88;4938056;28;20055;-89
2023/05/17 02:52:03;;;;;;;6.20;2.05;;;;;;;10.16;66.45;100489.81;4963664;28;20050;-89
2023/05/17 02:54:30;;;;;;;6.90;2.22;;;;;;;10.10;67.28;100484.97;4950947;28;20130;-88
2023/05/17 02:56:57;;;;;;;4.43;2.00;;;;;;;10.09;67.68;100491.25;4935942;28;20076;-89
2023/05/17 02:59:24;;;;;;;5.07;2.17;;;;;;;10.10;67.67;100487.63;4949749;28;20039;-89
2023/05/17 03:01:51;;;;;;;6.95;2.00;;;;;;;10.03;67.66;100497.88;4923287;28;20054;-88
2023/05/17 03:04:19;;;;;;;8.52;2.28;;;;;;;10.11;67.52;100491.97;4949556;28;20494;-87
2023/05/17 03:06:46;;;;;;;5.10;1.88;;;;;;;10.09;67.37;100493.91;4937157;28;20495;-88
2023/05/17 03:09:13;;;;;;;6.10;1.65;;;;;;;10.08;67.42;100490.41;4936797;28;20133;-88
2023/05/17 03:11:40;;;;;;;6.38;1.67;;;;;;;10.07;67.10;100501.97;4937049;28;20518;-90
2023/05/17 03:14:15;;;;;;;4.60;1.63;;;;;;;10.03;67.01;100495.22;4923899;28;20046;-89
2023/05/17 03:16:42;;;;;;;7.10;1.80;;;;;;;10.04;67.33;100496.91;4937608;28;20047;-91
2023/05/17 03:19:09;;;;;;;8.98;2.30;;;;;;;9.96;67.65;100494.81;4933226;28;20058;-87
2023/05/17 03:21:37;;;;;;;5.97;2.00;;;;;;;9.91;67.50;100498.78;4903131;28;20384;-87
2023/05/17 03:24:05;;;;;;;6.65;2.05;;;;;;;10.07;67.46;100501.13;4940884;28;20080;-86
2023/05/17 03:26:32;;;;;;;5.15;1.95;;;;;;;10.05;67.18;100501.25;4948547;28;21170;-87
2023/05/17 03:28:59;;;;;;;2.03;1.27;;;;;;;9.83;68.01;100509.13;4967587;28;20379;-86
2023/05/17 03:31:26;;;;;;;4.00;1.80;;;;;;;9.99;67.15;100510.50;4953095;28;20044;-87
2023/05/17 03:33:53;;;;;;;5.25;1.90;;;;;;;10.02;67.38;100504.13;4948625;28;20070;-87
2023/05/17 03:36:20;;;;;;;4.28;1.60;;;;;;;9.95;67.38;100506.41;4950349;28;20055;-87
2023/05/17 03:38:47;;;;;;;4.10;1.75;;;;;;;9.97;67.48;100504.50;4938086;28;20455;-87
2023/05/17 03:41:15;;;;;;;6.85;2.15;;;;;;;9.73;67.77;100501.84;4914213;28;20051;-87
2023/05/17 03:43:42;;;;;;;8.88;2.28;;;;;;;9.96;67.08;100510.75;4895637;28;20134;-87
2023/05/17 03:46:11;;;;;;;5.53;1.80;;;;;;;9.89;67.62;100514.81;4936812;28;20062;-87
2023/05/17 03:48:39;;;;;;;4.20;1.65;;;;;;;9.92;67.63;100521.69;4918529;28;20055;-86
2023/05/17 03:51:06;;;;;;;7.57;2.00;;;;;;;9.87;67.07;100510.56;4919288;28;20051;-85
2023/05/17 03:53:39;;;;;;;1.65;1.40;;;;;;;9.83;67.53;100515.28;4934013;28;20043;-86
2023/05/17 03:56:06;;;;;;;4.75;2.17;;;;;;;9.76;68.43;100522.00;4936669;28;20138;-85
2023/05/17 03:58:33;;;;;;;7.25;1.88;;;;;;;9.89;67.77;100519.28;4954835;28;20046;-85
2023/05/17 04:01:00;;;;;;;4.03;1.52;;;;;;;9.67;68.21;100522.69;4937515;28;20058;-85
2023/05/17 04:03:27;;;;;;;5.45;1.90;;;;;;;9.84;67.90;100524.06;4946323;28;20122;-85
2023/05/17 04:06:01;;;;;;;3.03;1.67;;;;;;;9.88;67.94;100528.19;4936807;28;20114;-85
2023/05/17 04:08:28;;;;;;;5.10;2.13;;;;;;;9.97;67.71;100520.41;4951836;28;20043;-85
2023/05/17 04:10:55;;;;;;;4.63;1.60;;;;;;;10.14;67.46;100531.53;4947694;28;20057;-85
2023/05/17 04:13:22;;;;;;;4.40;1.98;;;;;;;10.10;67.75;100530.94;4954427;28;20038;-84
2023/05/17 04:15:49;;;;;;;9.20;2.03;;;;;;;10.21;67.56;100533.63;4950467;28;20050;-85
2023/05/17 04:18:16;;;;;;;3.63;1.48;;;;;;;10.28;67.06;100536.69;4936621;28;20070;-85
2023/05/17 04:20:43;;;;;;;4.05;1.80;;;;;;;10.33;66.60;100546.94;4933121;28;20046;-85
2023/05/17 04:23:10;;;;;;;7.05;2.05;;;;;;;10.27;65.93;100545.56;4950500;28;20054;-85
2023/05/17 04:25:36;;;;;;;4.28;1.95;;;;;;;10.28;66.04;100546.44;4965878;28;20036;-85
2023/05/17 04:28:04;;;;;;;6.57;2.33;;;;;;;10.27;65.32;100552.69;4954498;28;20058;-85
2023/05/17 04:30:31;;;;;;;9.02;2.00;;;;;;;10.24;65.53;100556.44;4966008;28;20059;-86
2023/05/17 04:32:59;;;;;;;5.60;1.83;;;;;;;10.19;66.17;100559.44;4948211;28;20500;-86
2023/05/17 04:35:26;;;;;;;3.33;1.70;;;;;;;10.18;66.82;100564.88;4938724;28;20126;-87
2023/05/17 04:37:54;;;;;;;4.18;1.63;;;;;;;10.11;67.15;100566.28;4946846;28;20130;-85
2023/05/17 04:40:22;;;;;;;3.30;2.00;;;;;;;10.13;67.50;100573.16;4947593;28;20043;-84
2023/05/17 04:42:49;;;;;;;2.97;1.60;;;;;;;10.12;67.77;100567.97;4917305;28;20043;-84
2023/05/17 04:45:17;;;;;;;6.82;2.00;;;;;;;9.91;68.16;100571.25;4928182;28;20051;-85
2023/05/17 04:47:44;;;;;;;8.35;2.08;;;;;;;9.94;67.80;100571.03;4952838;28;20501;-85
2023/05/17 04:50:14;;;;;;;6.72;2.22;;;;;;;9.93;68.03;100574.66;4949169;28;20899;-85
2023/05/17 04:52:41;;;;;;;4.72;2.75;;;;;;;9.92;67.95;100564.13;4926170;28;20051;-85
2023/05/17 04:55:08;;;;;;;4.93;2.00;;;;;;;9.95;68.03;100570.06;4935904;28;20039;-85
2023/05/17 04:57:36;;;;;;;7.50;2.13;;;;;;;10.00;67.83;100585.66;4939164;28;20047;-85
2023/05/17 05:00:05;;;;;;;11.10;2.58;;;;;;;10.09;67.02;100571.69;4932104;28;20063;-84
2023/05/17 05:02:33;;;;;;;7.40;2.08;;;;;;;10.19;67.20;100580.66;4934963;28;20055;-84
2023/05/17 05:05:03;;;;;;;6.90;2.40;;;;;;;10.20;67.08;100581.50;4919503;28;20051;-84
2023/05/17 05:07:31;;;;;;;10.38;2.42;;;;;;;10.19;67.52;100590.44;4945012;28;20158;-84
2023/05/17 05:09:58;;;;;;;4.28;2.38;;;;;;;10.28;66.76;100581.81;4937466;28;20055;-85
2023/05/17 05:12:25;;;;;;;4.93;2.05;;;;;;;10.21;67.04;100589.34;4967376;28;20043;-84
2023/05/17 05:14:52;;;;;;;4.65;1.92;;;;;;;10.36;66.12;100597.19;4948016;28;20055;-84
2023/05/17 05:17:18;;;;;;;8.13;2.38;;;;;;;10.33;66.65;100600.91;4950013;28;20055;-84
2023/05/17 05:19:45;;;;;;;6.80;2.20;;;;;;;10.34;66.56;100599.94;4950999;28;20093;-85
2023/05/17 05:22:12;;;;;;;10.68;2.67;;;;;;;10.38;66.71;100596.09;4952417;28;20054;-85
2023/05/17 05:24:40;;;;;;;6.20;1.98;;;;;;;10.42;67.10;100599.34;4918451;28;20055;-85
2023/05/17 05:27:07;;;;;;;8.43;2.55;;;;;;;10.54;66.83;100608.22;4934251;28;20043;-84
2023/05/17 05:29:35;;;;;;;9.10;2.58;;;;;;;10.74;65.05;100612.00;4965106;28;20055;-85
2023/05/17 05:32:02;;;;;;;11.07;2.25;;;;;;;10.82;63.95;100609.59;4965707;28;20771;-84
2023/05/17 05:34:37;;;;;;;6.53;2.40;;;;;;;10.86;63.20;100614.56;4930997;28;20111;-84
2023/05/17 05:37:04;;;;;;;5.57;2.42;;;;;;;10.88;63.19;100616.25;4948671;28;20462;-85
2023/05/17 05:39:31;;;;;;;5.15;2.30;;;;;;;11.02;64.11;100618.69;4951810;28;20040;-84
2023/05/17 05:41:58;;;;;;;9.90;2.58;;;;;;;11.06;63.41;100614.81;4948403;28;20055;-85
2023/05/17 05:44:25;;;;;;;8.90;3.50;;;;;;;11.14;63.16;100619.53;4950478;28;20055;-85
2023/05/17 05:46:54;;;;;;;8.10;2.60;;;;;;;11.17;63.20;100613.97;4947819;28;20058;-84
2023/05/17 05:49:21;;;;;;;8.57;2.65;;;;;;;11.18;63.56;100616.50;4948725;28;20163;-84
2023/05/17 05:51:48;;;;;;;7.10;2.30;;;;;;;11.20;63.67;100614.59;4968879;28;20105;-85
2023/05/17 05:54:17;;;;;;;9.77;2.67;;;;;;;11.28;63.41;100616.63;4919508;28;20073;-85
2023/05/17 05:56:44;;;;;;;14.75;3.28;;;;;;;11.30;62.83;100625.34;4931853;28;20043;-85
2023/05/17 05:59:13;;;;;;;10.35;2.60;;;;;;;11.34;62.36;100626.78;4919322;28;20047;-85
2023/05/17 06:01:40;;;;;;;10.30;2.90;;;;;;;11.39;63.06;100627.25;4919463;28;20484;-86
2023/05/17 06:04:07;;;;;;;7.35;2.78;;;;;;;11.46;63.64;100625.81;4947046;28;20130;-84
2023/05/17 06:06:34;;;;;;;4.93;2.83;;;;;;;11.44;64.10;100635.72;4956282;28;20168;-84
2023/05/17 06:09:01;;;;;;;6.97;2.83;;;;;;;11.51;63.35;100633.44;4918303;28;20456;-85
2023/05/17 06:11:28;;;;;;;8.48;3.80;;;;;;;11.53;63.40;100631.50;4963763;28;20094;-85
2023/05/17 06:13:55;;;;;;;9.32;3.30;;;;;;;11.60;62.95;100635.38;4965271;28;20043;-85
2023/05/17 06:16:22;;;;;;;8.05;3.90;;;;;;;11.54;62.96;100635.00;4951316;28;20101;-85
2023/05/17 06:18:48;;;;;;;11.48;3.78;;;;;;;11.56;62.64;100643.72;4921607;28;20051;-85
2023/05/17 06:21:17;;;;;;;15.45;4.72;;;;;;;11.53;62.51;100639.47;4953743;28;20048;-84
2023/05/17 06:23:44;;;;;;;9.00;3.17;;;;;;;11.57;62.45;100648.03;4967989;28;20047;-85
2023/05/17 06:26:11;;;;;;;8.57;3.17;;;;;;;11.61;62.54;100645.03;4937190;28;20039;-84
2023/05/17 06:28:37;;;;;;;10.65;3.55;;;;;;;11.67;62.36;100652.50;4937274;28;20044;-85
2023/05/17 06:31:04;;;;;;;10.82;3.53;;;;;;;11.70;61.93;100654.06;4966692;28;20805;-84
2023/05/17 06:33:31;;;;;;;11.32;3.28;;;;;;;11.61;61.19;100649.50;4939437;28;20047;-84
2023/05/17 06:35:58;;;;;;;13.25;3.05;;;;;;;11.56;61.39;100663.16;4952043;28;20458;-84
2023/05/17 06:38:26;;;;;;;12.65;3.47;;;;;;;11.53;60.66;100660.75;4934447;28;20051;-84
2023/05/17 06:40:54;;;;;;;16.17;3.53;;;;;;;11.54;60.53;100662.44;4957658;28;20042;-84
2023/05/17 06:43:21;;;;;;;15.10;3.33;;;;;;;11.59;60.57;100654.09;4939678;28;20054;-84
2023/05/17 06:45:48;;;;;;;10.48;3.42;;;;;;;11.59;59.91;100654.09;4917205;28;20394;-84
2023/05/17 06:48:14;;;;;;;11.45;3.72;;;;;;;11.60;59.80;100661.97;4952912;28;20046;-83
2023/05/17 06:50:42;;;;;;;9.75;3.95;;;;;;;11.64;60.45;100654.56;4954573;28;20043;-84
2023/05/17 06:53:09;;;;;;;10.85;4.00;;;;;;;11.57;59.12;100670.16;4933178;28;20470;-85
2023/05/17 06:55:36;;;;;;;8.77;3.45;;;;;;;11.63;59.32;100666.19;4953695;28;20043;-84
2023/05/17 06:58:03;;;;;;;12.52;3.70;;;;;;;11.57;59.19;100661.34;4943176;28;20046;-84
2023/05/17 07:00:29;;;;;;;21.98;5.97;;;;;;;11.59;58.81;100672.72;4954963;28;20043;-84
2023/05/17 07:02:57;;;;;;;12.25;4.05;;;;;;;11.61;58.67;100666.31;4954240;28;20121;-84
2023/05/17 07:05:24;;;;;;;15.75;4.00;;;;;;;11.70;58.95;100664.72;4954255;28;20130;-85
2023/05/17 07:07:54;;;;;;;11.68;4.10;;;;;;;11.81;60.10;100662.06;4949873;28;20058;-84
2023/05/17 07:10:21;;;;;;;12.88;4.03;;;;;;;11.93;59.92;100665.56;4958583;28;20035;-85
2023/05/17 07:12:48;;;;;;;6.25;3.28;;;;;;;11.92;59.87;100670.03;4950650;28;20047;-84
2023/05/17 07:15:15;;;;;;;11.35;3.40;;;;;;;11.96;59.81;100678.63;4952020;28;20039;-84
2023/05/17 07:17:41;;;;;;;12.85;4.03;;;;;;;12.02;59.72;100677.28;4938433;28;20058;-84
2023/05/17 07:20:09;;;;;;;13.43;3.72;;;;;;;11.92;58.46;100667.38;4940961;28;20047;-85
2023/05/17 07:22:37;;;;;;;15.52;4.10;;;;;;;11.97;58.24;100668.84;4964841;28;20058;-84
2023/05/17 07:25:04;;;;;;;13.93;4.65;;;;;;;12.01;58.30;100678.25;4936636;28;20121;-85
2023/05/17 07:27:31;;;;;;;9.70;3.47;;;;;;;12.03;57.33;100681.63;4927654;28;20039;-84
2023/05/17 07:29:59;;;;;;;10.65;3.75;;;;;;;11.86;57.27;100673.22;4950671;28;20074;-84
2023/05/17 07:32:26;;;;;;;9.35;3.85;;;;;;;11.87;58.30;100668.72;4952381;28;20514;-85
2023/05/17 07:34:53;;;;;;;11.85;4.50;;;;;;;11.79;57.61;100671.97;4939840;28;20050;-84
2023/05/17 07:37:22;;;;;;;12.25;3.88;;;;;;;11.77;58.06;100679.22;4950592;28;20039;-85
2023/05/17 07:39:49;;;;;;;10.23;3.72;;;;;;;11.83;57.93;100681.41;4935960;28;20127;-85
2023/05/17 07:42:15;;;;;;;10.38;4.22;;;;;;;11.86;57.89;100685.66;4932869;28;20476;-85
2023/05/17 07:44:42;;;;;;;13.95;4.10;;;;;;;11.84;57.46;100677.78;4932461;28;20051;-84
2023/05/17 07:47:09;;;;;;;8.88;3.50;;;;;;;11.92;57.35;100678.03;4935780;28;20135;-85
2023/05/17 07:49:36;;;;;;;18.13;5.30;;;;;;;11.96;57.05;100675.97;4930089;28;20058;-84
2023/05/17 07:52:03;;;;;;;10.60;4.32;;;;;;;11.97;57.39;100682.97;4934043;28;20406;-85
2023/05/17 07:54:30;;;;;;;11.07;3.65;;;;;;;11.92;57.42;100680.69;4964487;28;20399;-84
2023/05/17 07:56:58;;;;;;;11.65;4.18;;;;;;;12.01;56.80;100679.13;4950946;28;20055;-85
2023/05/17 07:59:25;;;;;;;14.77;3.72;;;;;;;12.03;57.62;100693.13;4953627;28;20118;-84
2023/05/17 08:01:52;;;;;;;9.05;4.10;;;;;;;12.00;57.10;100680.06;4951269;28;20403;-85
2023/05/17 08:04:23;;;;;;;13.98;4.32;;;;;;;12.06;56.65;100670.72;4953895;28;20039;-85
2023/05/17 08:06:50;;;;;;;10.10;4.47;;;;;;;12.12;56.55;100673.75;4929984;28;20053;-85
2023/05/17 08:09:17;;;;;;;13.32;3.80;;;;;;;12.07;57.20;100688.41;4930277;28;20141;-84
2023/05/17 08:11:47;;;;;;;10.35;4.45;;;;;;;12.07;56.36;100677.75;4949705;28;20569;-85
2023/05/17 08:14:15;;;;;;;11.68;4.28;;;;;;;12.06;55.94;100676.06;4970869;28;20109;-84
2023/05/17 08:16:43;;;;;;;9.40;3.50;;;;;;;12.09;56.27;100679.34;4953957;28;20125;-84
2023/05/17 08:19:15;;;;;;;13.18;3.83;;;;;;;12.11;55.79;100677.41;4964599;28;20049;-84
2023/05/17 08:21:42;;;;;;;9.85;3.45;;;;;;;12.17;55.35;100668.06;4969687;28;20110;-84
2023/05/17 08:24:09;;;;;;;10.43;3.72;;;;;;;12.16;55.00;100667.22;4951836;28;20054;-84
2023/05/17 08:26:36;;;;;;;8.15;2.88;;;;;;;12.15;56.16;100657.53;4949800;28;20050;-84
2023/05/17 08:29:03;;;;;;;7.80;3.60;;;;;;;12.13;56.16;100663.94;4941485;28;20126;-84
2023/05/17 08:31:33;;;;;;;11.45;4.00;;;;;;;12.16;56.24;100667.22;4950767;28;20055;-84
2023/05/17 08:33:59;;;;;;;8.20;2.92;;;;;;;12.19;55.86;100668.78;4947997;28;20047;-85
2023/05/17 08:36:27;;;;;;;10.02;2.83;;;;;;;12.12;56.40;100665.75;4964162;28;20137;-85
2023/05/17 08:38:54;;;;;;;8.77;2.88;;;;;;;12.05;57.02;100680.53;4948962;28;20126;-84
2023/05/17 08:41:21;;;;;;;12.32;2.85;;;;;;;11.91;56.13;100679.00;4936444;28;20070;-85
2023/05/17 08:43:48;;;;;;;13.20;3.45;;;;;;;11.93;56.73;100679.72;4953122;28;20059;-84
2023/05/17 08:46:20;;;;;;;8.68;3.28;;;;;;;11.88;55.69;100673.94;4963242;28;20514;-85
2023/05/17 08:48:51;;;;;;;6.05;2.75;;;;;;;11.80;56.24;100686.13;4948142;28;20046;-84
2023/05/17 08:51:19;;;;;;;8.60;3.42;;;;;;;11.87;56.48;100679.38;4955806;28;20503;-84
2023/05/17 08:53:46;;;;;;;13.73;2.72;;;;;;;11.88;56.27;100684.59;4928028;28;20109;-85
2023/05/17 08:56:15;;;;;;;5.63;2.63;;;;;;;11.89;56.25;100680.94;4947492;28;20035;-84
2023/05/17 08:58:42;;;;;;;8.60;3.17;;;;;;;11.92;57.12;100687.84;4945076;28;20130;-84
2023/05/17 09:01:23;;;;;;;12.77;4.55;;;;;;;11.94;56.36;100678.75;4929937;28;20048;-84
2023/05/17 09:03:53;;;;;;;8.35;2.83;;;;;;;12.02;56.48;100683.44;4967033;28;20058;-84
2023/05/17 09:06:21;;;;;;;9.40;2.75;;;;;;;12.12;56.34;100680.91;4934214;28;20578;-84
2023/05/17 09:08:53;;;;;;;7.90;2.75;;;;;;;12.17;56.39;100678.72;4949170;28;20436;-85
2023/05/17 09:11:27;;;;;;;6.90;2.63;;;;;;;12.16;56.29;100677.88;4934456;28;20051;-84
2023/05/17 09:14:02;;;;;;;9.20;2.45;;;;;;;12.24;54.30;100674.56;4951046;28;20035;-84
2023/05/17 09:16:30;;;;;;;6.55;2.63;;;;;;;12.35;54.91;100668.34;4933731;28;20705;-85
2023/05/17 09:18:57;;;;;;;8.48;3.00;;;;;;;12.37;55.61;100674.41;4948852;28;20047;-84
2023/05/17 09:21:26;;;;;;;6.53;2.65;;;;;;;12.35;54.47;100673.69;4966033;28;20054;-84
2023/05/17 09:23:53;;;;;;;7.00;2.72;;;;;;;12.35;54.17;100669.19;4944985;28;20043;-84
2023/05/17 09:26:43;;;;;;;9.85;2.70;;;;;;;12.33;53.58;100671.13;4939650;28;20105;-84
2023/05/17 09:29:12;;;;;;;5.00;2.60;;;;;;;12.39;54.63;100667.16;4945518;28;20106;-84
2023/05/17 09:31:39;;;;;;;10.82;3.47;;;;;;;12.40;54.97;100673.31;4949489;28;20054;-85
2023/05/17 09:34:07;;;;;;;9.82;2.85;;;;;;;12.29;54.44;100671.53;4969516;28;20046;-84
2023/05/17 09:36:36;;;;;;;8.90;2.90;;;;;;;12.30;54.10;100679.38;4934308;28;20514;-83
2023/05/17 09:39:04;;;;;;;10.00;3.13;;;;;;;12.32;53.96;100676.59;4948410;28;20114;-84
2023/05/17 09:41:45;;;;;;;6.22;2.65;;;;;;;12.29;53.64;100677.72;4953982;28;20069;-83
2023/05/17 09:44:16;;;;;;;4.57;2.65;;;;;;;12.32;54.16;100680.09;4929634;28;20039;-83
2023/05/17 09:46:46;;;;;;;8.73;2.90;;;;;;;12.36;54.28;100676.22;4953299;28;20049;-83
2023/05/17 09:49:14;;;;;;;8.52;3.08;;;;;;;12.32;54.61;100684.59;4958558;28;20521;-84
2023/05/17 09:51:42;;;;;;;9.63;3.15;;;;;;;12.39;54.72;100685.78;4953342;28;20098;-84
2023/05/17 09:54:10;;;;;;;9.63;3.15;;;;;;;12.43;54.52;100684.53;4953968;28;20101;-83
2023/05/17 09:56:37;;;;;;;7.78;2.35;;;;;;;12.40;54.31;100682.13;4957369;28;20038;-84
2023/05/17 09:59:10;;;;;;;7.53;3.20;;;;;;;12.32;54.11;100682.78;4951672;28;20054;-84
2023/05/17 10:01:42;;;;;;;7.55;3.42;;;;;;;12.34;54.70;100685.31;4950801;28;20039;-84
2023/05/17 10:04:10;;;;;;;10.50;3.10;;;;;;;12.35;54.63;100689.66;4969164;28;20051;-84
2023/05/17 10:06:39;;;;;;;7.88;3.17;;;;;;;12.37;54.46;100687.72;4953436;28;20043;-84
2023/05/17 10:09:15;;;;;;;7.70;3.28;;;;;;;12.33;54.63;100688.94;4956562;28;20079;-84
2023/05/17 10:11:45;;;;;;;11.48;4.40;;;;;;;12.30;55.20;100699.84;4932617;28;20039;-85
2023/05/17 10:14:17;;;;;;;12.13;3.65;;;;;;;12.37;53.88;100701.88;4950233;28;20063;-85
2023/05/17 10:16:44;;;;;;;9.90;4.45;;;;;;;12.36;55.65;100704.66;4953341;28;20039;-85
2023/05/17 10:19:12;;;;;;;8.82;3.13;;;;;;;12.39;55.45;100704.44;4930155;28;20130;-85
2023/05/17 10:21:39;;;;;;;13.20;3.40;;;;;;;12.39;55.31;100701.78;4967449;28;20074;-85
2023/05/17 10:24:06;;;;;;;9.30;3.72;;;;;;;12.43;54.74;100703.19;4956191;28;20050;-85
2023/05/17 10:26:35;;;;;;;9.77;3.20;;;;;;;12.46;55.74;100700.25;4952343;28;20137;-86
2023/05/17 10:29:02;;;;;;;13.13;3.50;;;;;;;12.46;54.65;100708.25;4923553;28;20490;-85
2023/05/17 10:31:32;;;;;;;9.80;3.10;;;;;;;12.44;55.39;100714.69;4969228;28;20039;-85
2023/05/17 10:34:04;;;;;;;7.35;3.22;;;;;;;12.43;54.34;100711.19;4933488;28;20055;-84
2023/05/17 10:36:32;;;;;;;8.70;2.70;;;;;;;12.43;54.10;100699.69;4923894;28;22874;-85
2023/05/17 10:38:59;;;;;;;8.65;2.75;;;;;;;12.49;54.03;100708.03;4970147;28;20051;-84
2023/05/17 10:41:29;;;;;;;8.60;3.08;;;;;;;12.46;55.02;100702.94;4937273;28;20380;-86
2023/05/17 10:43:56;;;;;;;9.50;3.35;;;;;;;12.53;54.56;100703.28;4951884;28;20491;-85
2023/05/17 10:46:23;;;;;;;7.20;2.80;;;;;;;12.54;55.23;100710.28;4952724;28;20047;-85
2023/05/17 10:48:51;;;;;;;7.28;3.40;;;;;;;12.59;54.96;100716.94;4966430;28;20654;-85
2023/05/17 10:51:26;;;;;;;8.60;3.03;;;;;;;12.53;53.27;100714.78;4950101;28;20051;-85
2023/05/17 10:54:12;;;;;;;5.18;2.92;;;;;;;12.54;53.75;100713.81;4935871;28;20122;-85
2023/05/17 10:56:42;;;;;;;8.15;3.20;;;;;;;12.65;53.72;100702.28;4948866;28;20039;-85
2023/05/17 10:59:35;;;;;;;9.35;3.42;;;;;;;12.65;54.22;100714.75;4939972;28;20491;-85
2023/05/17 11:02:06;;;;;;;8.05;2.92;;;;;;;12.76;53.70;100717.34;4932864;28;20067;-84
2023/05/17 11:04:49;;;;;;;9.07;2.90;;;;;;;12.76;53.68;100707.53;4949486;28;20135;-85
2023/05/17 11:07:17;;;;;;;6.40;4.03;;;;;;;12.79;53.00;100706.44;4937633;28;21452;-86
2023/05/17 11:10:06;;;;;;;6.57;2.70;;;;;;;12.83;53.33;100707.88;4950430;28;20047;-85
2023/05/17 11:12:37;;;;;;;9.73;3.15;;;;;;;12.92;54.47;100691.09;4954614;28;20047;-85
2023/05/17 11:15:11;;;;;;;5.78;2.72;;;;;;;12.92;53.00;100719.56;4939047;28;20049;-85
2023/05/17 11:17:50;;;;;;;14.18;2.78;;;;;;;12.91;52.51;100705.41;4948999;28;20046;-85
2023/05/17 11:20:26;;;;;;;11.25;4.30;;;;;;;12.95;52.62;100695.31;4965574;28;20051;-85
2023/05/17 11:23:11;;;;;;;7.15;2.58;;;;;;;12.87;51.04;100703.13;4948934;28;20777;-85
2023/05/17 11:25:39;;;;;;;13.45;3.50;;;;;;;12.92;52.10;100703.56;4952565;28;20066;-85
2023/05/17 11:28:19;;;;;;;14.30;3.33;;;;;;;12.86;51.24;100704.94;4951685;28;20182;-85
2023/05/17 11:30:52;;;;;;;5.10;2.90;;;;;;;12.88;52.52;100708.34;4930874;28;20067;-86
2023/05/17 11:33:20;;;;;;;7.45;2.95;;;;;;;12.83;51.20;100705.22;4935222;28;20126;-85